createdAt,value
2018-05-12T00:02:18.799Z,2.73
2018-05-12T00:04:46.326Z,1.90
2018-05-12T00:07:13.813Z,2.07
2018-05-12T00:09:41.293Z,2.33
2018-05-12T00:12:08.848Z,1.97
2018-05-12T00:14:36.340Z,2.17
2018-05-12T00:17:03.825Z,2.63
2018-05-12T00:19:31.309Z,1.83
2018-05-12T00:21:59.675Z,2.10
2018-05-12T00:24:27.149Z,1.90
2018-05-12T00:26:54.676Z,2.03
2018-05-12T00:29:22.153Z,1.97
2018-05-12T00:31:49.777Z,2.00
2018-05-12T00:34:17.303Z,2.00
2018-05-12T00:36:44.770Z,2.10
2018-05-12T00:39:12.245Z,2.10
2018-05-12T00:41:39.819Z,2.10
2018-05-12T00:44:07.392Z,2.10
2018-05-12T00:46:34.966Z,1.80
2018-05-12T00:49:02.452Z,2.13
2018-05-12T00:51:29.942Z,1.80
2018-05-12T00:53:57.492Z,1.90
2018-05-12T00:56:24.969Z,1.80
2018-05-12T00:58:52.491Z,1.80
2018-05-12T01:01:20.798Z,2.03
2018-05-12T01:03:48.280Z,1.73
2018-05-12T01:06:15.757Z,2.07
2018-05-12T01:08:43.325Z,2.27
2018-05-12T01:11:10.892Z,1.77
2018-05-12T01:13:38.418Z,2.10
2018-05-12T01:16:05.837Z,1.60
2018-05-12T01:18:33.309Z,1.80
2018-05-12T01:22:32.477Z,1.93
2018-05-12T01:25:00.806Z,1.90
2018-05-12T01:27:28.381Z,1.83
2018-05-12T08:10:39.374Z,2.20
2018-05-12T08:13:06.973Z,3.63
2018-05-12T08:15:34.521Z,2.77
2018-05-12T08:18:02.014Z,1.77
2018-05-12T08:20:29.593Z,3.63
2018-05-12T08:22:57.068Z,2.83
2018-05-12T08:25:24.640Z,2.73
2018-05-12T08:27:52.118Z,1.93
2018-05-12T08:30:19.601Z,2.27
2018-05-12T08:32:47.140Z,1.80
2018-05-12T08:35:14.706Z,3.60
2018-05-12T08:37:42.193Z,1.87
2018-05-12T08:40:09.758Z,2.87
2018-05-12T08:42:37.233Z,2.80
2018-05-12T08:45:04.789Z,1.93
2018-05-12T08:47:32.456Z,2.03
2018-05-12T08:49:59.939Z,3.10
2018-05-12T08:52:27.491Z,6.77
2018-05-12T08:54:55.065Z,5.77
2018-05-12T08:57:22.554Z,4.40
2018-05-12T08:59:50.024Z,11.97
2018-05-12T09:02:17.578Z,6.87
2018-05-12T09:04:45.796Z,9.80
2018-05-12T09:07:13.329Z,6.00
2018-05-12T09:09:40.837Z,7.57
2018-05-12T09:12:08.421Z,8.47
2018-05-12T09:14:35.981Z,10.03
2018-05-12T09:17:03.445Z,9.70
2018-05-12T09:19:30.925Z,7.07
2018-05-12T09:21:58.564Z,10.27
2018-05-12T09:24:26.868Z,7.13
2018-05-12T09:26:54.357Z,6.20
2018-05-12T09:29:21.909Z,8.27
2018-05-12T09:31:49.491Z,8.97
2018-05-12T09:34:16.972Z,5.97
2018-05-12T09:36:44.611Z,9.80
2018-05-12T09:39:12.864Z,7.80
2018-05-12T09:41:40.390Z,10.23
2018-05-12T09:44:08.073Z,9.77
2018-05-12T09:46:35.793Z,7.87
2018-05-12T09:49:04.130Z,7.23
2018-05-12T09:51:31.601Z,9.20
2018-05-12T09:53:59.161Z,6.00
2018-05-12T09:56:26.741Z,8.57
2018-05-12T09:58:54.308Z,22.77
2018-05-12T10:01:21.889Z,7.20
2018-05-12T10:03:49.465Z,8.63
2018-05-12T10:06:16.932Z,6.40
2018-05-12T10:08:44.425Z,12.73
2018-05-12T10:11:11.959Z,7.03
2018-05-12T10:13:39.470Z,6.50
2018-05-12T10:16:06.972Z,52.43
2018-05-12T10:18:35.223Z,10.33
2018-05-12T10:21:02.760Z,9.87
2018-05-12T10:23:30.245Z,6.30
2018-05-12T10:25:57.720Z,6.53
2018-05-12T10:28:25.281Z,9.13
2018-05-12T10:30:52.811Z,6.67
2018-05-12T10:33:21.144Z,8.57
2018-05-12T10:35:48.621Z,6.50
2018-05-12T10:38:16.142Z,7.97
2018-05-12T10:40:44.401Z,7.50
2018-05-12T10:43:11.876Z,8.27
2018-05-12T10:45:39.349Z,8.00
2018-05-12T10:48:06.863Z,7.00
2018-05-12T10:50:35.172Z,5.60
2018-05-12T10:53:02.657Z,8.90
2018-05-12T10:55:30.153Z,14.53
2018-05-12T10:57:57.638Z,9.90
2018-05-12T11:00:25.105Z,9.47
2018-05-12T11:02:52.572Z,6.13
2018-05-12T11:05:20.205Z,9.27
2018-05-12T11:07:47.698Z,8.20
2018-05-12T11:10:15.261Z,11.50
2018-05-12T11:12:42.883Z,5.67
2018-05-12T11:15:11.230Z,5.87
2018-05-12T11:17:38.768Z,16.13
2018-05-12T11:20:06.292Z,7.90
2018-05-12T11:22:33.761Z,8.27
2018-05-12T11:25:01.251Z,7.13
2018-05-12T11:27:28.762Z,9.50
2018-05-12T11:29:56.236Z,15.00
2018-05-12T11:32:23.709Z,6.87
2018-05-12T11:34:51.269Z,11.93
2018-05-12T11:37:18.748Z,9.77
2018-05-12T11:39:46.252Z,13.77
2018-05-12T11:42:13.717Z,7.80
2018-05-12T11:44:41.481Z,4.87
2018-05-12T11:47:08.913Z,11.67
2018-05-12T11:49:37.261Z,12.40
2018-05-12T11:52:04.728Z,12.87
2018-05-12T11:54:32.278Z,8.07
2018-05-12T11:56:59.861Z,13.30
2018-05-12T11:59:27.332Z,11.93
2018-05-12T12:01:54.805Z,16.97
2018-05-12T12:04:22.289Z,8.00
2018-05-12T12:06:49.816Z,13.40
2018-05-12T12:09:17.380Z,10.73
2018-05-12T12:11:44.965Z,13.17
2018-05-12T12:14:12.557Z,17.97
2018-05-12T12:16:40.220Z,9.50
2018-05-12T12:19:07.662Z,11.63
2018-05-12T12:21:35.967Z,16.57
2018-05-12T12:24:03.536Z,15.20
2018-05-12T12:26:31.033Z,9.60
2018-05-12T12:28:58.517Z,9.33
2018-05-12T12:31:26.057Z,10.57
2018-05-12T12:33:53.573Z,7.33
2018-05-12T12:36:21.049Z,7.20
2018-05-12T12:38:49.308Z,6.63
2018-05-12T12:41:16.785Z,14.83
2018-05-12T12:43:44.385Z,13.27
2018-05-12T12:46:12.640Z,11.20
2018-05-12T12:48:40.122Z,11.07
2018-05-12T12:51:08.378Z,9.33
2018-05-12T12:53:35.879Z,14.23
2018-05-12T12:56:03.364Z,11.17
2018-05-12T12:58:31.784Z,12.77
2018-05-12T13:00:59.271Z,12.97
2018-05-12T13:03:26.852Z,26.70
2018-05-12T13:05:54.331Z,17.77
2018-05-12T13:08:21.826Z,18.20
2018-05-12T13:10:49.292Z,23.40
2018-05-12T13:13:16.789Z,13.43
2018-05-12T13:15:45.853Z,16.07
2018-05-12T13:18:13.420Z,19.73
2018-05-12T13:20:40.923Z,25.40
2018-05-12T13:23:08.400Z,23.23
2018-05-12T13:25:36.679Z,12.43
2018-05-12T13:28:04.347Z,12.67
2018-05-12T13:30:31.864Z,10.20
2018-05-12T13:32:59.266Z,10.03
2018-05-12T13:35:26.745Z,8.80
2018-05-12T13:37:54.232Z,9.33
2018-05-12T13:40:23.236Z,8.03
2018-05-12T13:42:50.711Z,9.20
2018-05-12T13:45:18.211Z,9.53
2018-05-12T13:47:45.709Z,11.40
2018-05-12T13:50:13.376Z,15.10
2018-05-12T13:52:40.996Z,9.53
2018-05-12T13:55:08.474Z,8.57
2018-05-12T13:57:35.981Z,12.37
2018-05-12T14:00:03.457Z,10.10
2018-05-12T14:02:31.043Z,14.77
2018-05-12T14:04:58.537Z,9.07
2018-05-12T14:07:26.101Z,10.70
2018-05-12T14:09:53.537Z,13.00
2018-05-12T14:12:21.021Z,7.63
2018-05-12T14:14:48.548Z,8.63
2018-05-12T14:17:16.894Z,9.20
2018-05-12T14:19:44.513Z,12.60
2018-05-12T14:22:11.994Z,11.80
2018-05-12T14:24:40.276Z,6.80
2018-05-12T14:27:08.528Z,9.23
2018-05-12T14:29:36.074Z,6.63
2018-05-12T14:32:03.548Z,14.43
2018-05-12T14:34:31.116Z,7.83
2018-05-12T14:36:58.611Z,7.17
2018-05-12T14:39:26.152Z,15.40
2018-05-12T14:41:53.640Z,12.33
2018-05-12T14:44:21.220Z,10.93
2018-05-12T14:46:48.779Z,13.53
2018-05-12T14:49:16.265Z,8.77
2018-05-12T14:51:43.736Z,11.53
2018-05-12T14:54:11.224Z,8.40
2018-05-12T14:56:38.785Z,9.80
2018-05-12T14:59:06.369Z,8.50
2018-05-12T15:01:33.866Z,17.40
2018-05-12T15:04:02.254Z,14.57
2018-05-12T15:06:30.484Z,19.67
2018-05-12T15:08:58.116Z,13.47
2018-05-12T15:11:26.448Z,14.83
2018-05-12T15:13:53.922Z,10.83
2018-05-12T15:16:24.113Z,23.20
2018-05-12T15:18:51.761Z,12.47
2018-05-12T15:21:19.333Z,11.17
2018-05-12T15:23:46.720Z,10.07
2018-05-12T15:26:14.992Z,12.50
2018-05-12T15:28:42.536Z,10.33
2018-05-12T15:31:10.009Z,8.50
2018-05-12T15:33:37.612Z,12.07
2018-05-12T15:36:05.142Z,10.67
2018-05-12T15:38:32.720Z,14.50
2018-05-12T15:41:00.294Z,16.73
2018-05-12T15:43:27.769Z,9.50
2018-05-12T15:45:55.251Z,13.20
2018-05-12T15:48:22.773Z,13.93
2018-05-12T15:50:51.097Z,18.57
2018-05-12T15:53:18.652Z,12.30
2018-05-12T15:55:46.161Z,14.47
2018-05-12T15:58:13.666Z,13.93
2018-05-12T16:00:41.918Z,12.40
2018-05-12T16:03:09.459Z,13.97
2018-05-12T16:05:37.718Z,12.33
2018-05-12T16:08:05.192Z,21.33
2018-05-12T16:10:32.769Z,15.03
2018-05-12T16:13:01.068Z,23.53
2018-05-12T16:15:28.678Z,23.00
2018-05-12T16:17:56.153Z,23.00
2018-05-12T16:20:24.420Z,45.20
2018-05-12T16:22:51.929Z,19.63
2018-05-12T16:25:19.432Z,24.97
2018-05-12T16:27:46.916Z,23.13
2018-05-12T16:30:14.390Z,21.33
2018-05-12T16:32:42.017Z,20.77
2018-05-12T16:35:10.473Z,21.40
2018-05-12T16:37:38.064Z,20.87
2018-05-12T16:40:05.553Z,22.80
2018-05-12T16:42:33.052Z,18.40
2018-05-12T16:45:00.545Z,17.37
2018-05-12T16:47:28.085Z,20.27
2018-05-12T16:49:56.323Z,25.23
2018-05-12T16:52:23.806Z,17.83
2018-05-12T16:54:51.352Z,12.83
2018-05-12T16:57:18.921Z,17.00
2018-05-12T16:59:46.497Z,15.03
2018-05-12T17:02:13.985Z,15.43
2018-05-12T17:04:41.578Z,17.07
2018-05-12T17:07:09.140Z,17.83
2018-05-12T17:09:36.657Z,17.97
2018-05-12T17:12:04.246Z,14.27
2018-05-12T17:14:31.825Z,14.43
2018-05-12T17:16:59.384Z,10.50
2018-05-12T17:19:26.868Z,15.07
2018-05-12T17:21:54.353Z,14.07
2018-05-12T17:24:21.901Z,13.67
2018-05-12T17:26:49.373Z,13.77
2018-05-12T17:29:16.862Z,9.97
2018-05-12T17:31:44.426Z,9.83
2018-05-12T17:34:12.038Z,13.40
2018-05-12T17:36:39.547Z,12.70
2018-05-12T17:39:07.099Z,10.37
2018-05-12T17:41:35.362Z,10.47
2018-05-12T17:44:02.888Z,9.10
2018-05-12T17:46:30.375Z,10.43
2018-05-12T17:48:57.936Z,13.17
2018-05-12T17:51:25.448Z,8.77
2018-05-12T17:53:52.932Z,10.53
2018-05-12T17:56:21.215Z,10.30
2018-05-12T17:58:48.758Z,9.23
2018-05-12T18:01:16.241Z,11.30
2018-05-12T18:03:43.788Z,7.83
2018-05-12T18:06:11.366Z,8.43
2018-05-12T18:08:38.993Z,12.43
2018-05-12T18:11:08.294Z,8.20
2018-05-12T18:13:35.901Z,7.63
2018-05-12T18:16:03.535Z,9.37
2018-05-12T18:18:30.999Z,7.53
2018-05-12T18:20:58.497Z,8.47
2018-05-12T18:23:25.993Z,9.23
2018-05-12T18:25:53.589Z,10.23
2018-05-12T18:28:21.053Z,8.87
2018-05-12T18:30:48.636Z,5.77
2018-05-12T18:33:16.113Z,7.57
2018-05-12T18:35:43.671Z,7.53
2018-05-12T18:38:11.229Z,6.77
2018-05-12T18:40:38.814Z,9.70
2018-05-12T18:43:06.333Z,6.80
2018-05-12T18:45:33.832Z,5.97
2018-05-12T18:48:01.318Z,8.53
2018-05-12T18:50:28.876Z,6.10
2018-05-12T18:52:56.361Z,6.80
2018-05-12T18:55:23.867Z,6.10
2018-05-12T18:57:51.402Z,6.37
2018-05-12T19:00:18.960Z,5.33
2018-05-12T19:02:46.537Z,6.50
2018-05-12T19:05:14.013Z,6.67
2018-05-12T19:07:41.587Z,5.47
2018-05-12T19:10:09.326Z,5.77
2018-05-12T19:12:37.560Z,6.87
2018-05-12T19:15:05.033Z,4.10
2018-05-12T19:17:32.593Z,6.73
2018-05-12T19:20:00.157Z,6.87
2018-05-12T19:22:27.633Z,5.67
2018-05-12T19:24:55.201Z,7.77
2018-05-12T19:27:22.679Z,6.77
2018-05-12T19:29:50.285Z,7.83
2018-05-12T19:32:17.776Z,6.17
2018-05-12T19:34:46.117Z,9.47
2018-05-12T19:37:14.412Z,6.20
2018-05-12T19:39:41.958Z,9.00
2018-05-12T19:42:09.459Z,6.80
2018-05-12T19:44:37.005Z,6.83
2018-05-12T19:47:04.476Z,5.67
2018-05-12T19:49:32.076Z,6.87
2018-05-12T19:51:59.465Z,5.50
2018-05-12T19:54:27.093Z,5.23
2018-05-12T19:56:54.684Z,6.50
2018-05-12T19:59:22.188Z,5.43
2018-05-12T20:01:50.440Z,6.63
2018-05-12T20:04:17.905Z,6.20
2018-05-12T20:06:45.464Z,6.27
2018-05-12T20:09:12.972Z,6.50
2018-05-12T20:11:41.985Z,5.03
2018-05-12T20:14:09.536Z,6.57
2018-05-12T20:16:37.050Z,6.53
2018-05-12T20:19:05.387Z,6.77
2018-05-12T20:21:32.849Z,6.87
2018-05-12T20:24:00.418Z,3.83
2018-05-12T20:26:27.984Z,4.27
2018-05-12T20:28:55.565Z,5.60
2018-05-12T20:31:23.071Z,5.63
2018-05-12T20:33:50.544Z,3.83
2018-05-12T20:36:18.065Z,5.73
2018-05-12T20:38:45.662Z,3.60
2018-05-12T20:41:13.306Z,6.70
2018-05-12T20:43:40.788Z,6.10
2018-05-12T20:46:08.272Z,4.17
2018-05-12T20:48:35.755Z,4.23
2018-05-12T20:51:03.294Z,5.07
2018-05-12T20:53:30.881Z,4.93
2018-05-12T20:55:58.361Z,4.80
2018-05-12T20:58:25.828Z,4.40
2018-05-12T21:00:53.381Z,4.87
2018-05-12T21:03:20.857Z,5.30
2018-05-12T21:05:48.397Z,4.47
2018-05-12T21:08:16.729Z,3.90
2018-05-12T21:10:44.289Z,5.90
2018-05-12T21:13:11.913Z,4.70
2018-05-12T21:15:39.476Z,3.73
2018-05-12T21:18:07.133Z,3.97
2018-05-12T21:20:34.677Z,4.90
2018-05-12T21:23:02.216Z,4.57
2018-05-12T21:25:29.632Z,4.07
2018-05-12T21:28:03.840Z,4.57
2018-05-12T21:30:31.417Z,4.47
2018-05-12T21:32:58.888Z,4.67
2018-05-12T21:35:26.467Z,3.67
2018-05-12T21:37:54.038Z,4.97
2018-05-12T21:40:21.541Z,4.00
2018-05-12T21:42:49.801Z,4.53
2018-05-12T21:45:17.282Z,4.67
2018-05-12T21:47:44.828Z,4.27
2018-05-12T21:50:12.423Z,3.43
2018-05-12T21:52:40.041Z,5.00
2018-05-12T21:55:07.603Z,3.70
2018-05-12T21:57:35.073Z,4.07
2018-05-12T22:00:02.610Z,3.57
2018-05-12T22:02:30.103Z,3.73
2018-05-12T22:04:57.598Z,3.93
2018-05-12T22:07:25.841Z,3.60
2018-05-12T22:09:53.345Z,4.20
2018-05-12T22:12:20.826Z,3.80
2018-05-12T22:14:49.071Z,3.87
2018-05-12T22:17:16.553Z,5.90
2018-05-12T22:19:44.063Z,4.73
2018-05-12T22:22:12.349Z,4.50
2018-05-12T22:24:40.584Z,3.77
2018-05-12T22:27:08.158Z,4.13
2018-05-12T22:29:35.669Z,3.50
2018-05-12T22:32:04.009Z,4.23
2018-05-12T22:34:31.490Z,3.97
2018-05-12T22:36:58.969Z,3.80
2018-05-12T22:39:26.444Z,4.20
2018-05-12T22:41:53.991Z,4.17
2018-05-12T22:44:21.474Z,4.23
2018-05-12T22:46:49.032Z,5.27
2018-05-12T22:49:16.500Z,4.10
2018-05-12T22:51:43.981Z,4.40
2018-05-12T22:54:11.626Z,3.87
2018-05-12T22:56:40.018Z,4.13
2018-05-12T22:59:07.502Z,4.10
2018-05-12T23:01:35.113Z,4.30
2018-05-12T23:04:02.639Z,4.80
2018-05-12T23:06:30.073Z,4.60
2018-05-12T23:08:58.309Z,5.03
2018-05-12T23:11:25.792Z,3.93
2018-05-12T23:13:53.349Z,4.60
2018-05-12T23:16:20.824Z,4.20
2018-05-12T23:18:48.313Z,4.40
2018-05-12T23:21:15.839Z,4.00
2018-05-12T23:23:43.340Z,4.00
2018-05-12T23:26:10.921Z,4.10
2018-05-12T23:28:38.477Z,3.93
2018-05-12T23:31:06.066Z,4.17
2018-05-12T23:33:33.539Z,3.77
2018-05-12T23:36:01.093Z,4.60
2018-05-12T23:38:28.745Z,4.40
2018-05-12T23:40:57.060Z,4.37
2018-05-12T23:43:24.545Z,4.27
2018-05-12T23:45:52.017Z,4.23
2018-05-12T23:48:19.492Z,4.67
2018-05-12T23:50:47.032Z,4.43
2018-05-12T23:53:14.615Z,4.73
2018-05-12T23:55:42.189Z,4.60
2018-05-12T23:58:09.819Z,4.50
